createdAt,value
2024-05-09T00:00:48.407Z,13.438
2024-05-09T00:02:48.040Z,13.438
2024-05-09T00:04:48.642Z,13.313
2024-05-09T00:06:47.956Z,13.375
2024-05-09T00:08:47.884Z,13.313
2024-05-09T00:10:48.273Z,13.25
2024-05-09T00:12:48.232Z,13.25
2024-05-09T00:14:48.112Z,13.25
2024-05-09T00:16:48.070Z,13.25
2024-05-09T00:18:48.209Z,13.187
2024-05-09T00:20:48.202Z,13.187
2024-05-09T00:22:47.989Z,13.125
2024-05-09T00:24:47.927Z,13.063
2024-05-09T00:26:47.778Z,13.063
2024-05-09T00:28:48.159Z,13.125
2024-05-09T00:30:47.815Z,13
2024-05-09T00:32:48.569Z,13.063
2024-05-09T00:34:48.141Z,13
2024-05-09T00:36:47.936Z,13
2024-05-09T00:38:47.993Z,12.938
2024-05-09T00:40:48.339Z,12.938
2024-05-09T00:44:47.798Z,13
2024-05-09T00:46:48.424Z,12.875
2024-05-09T00:48:48.290Z,12.875
2024-05-09T00:50:49.350Z,12.813
2024-05-09T00:52:48.208Z,12.813
2024-05-09T00:54:47.718Z,12.813
2024-05-09T00:56:47.848Z,12.75
2024-05-09T00:58:47.880Z,12.688
2024-05-09T01:00:48.425Z,12.688
2024-05-09T01:02:48.304Z,12.688
2024-05-09T01:06:47.942Z,12.625
2024-05-09T01:08:47.988Z,12.625
2024-05-09T01:10:49.623Z,12.562
2024-05-09T01:12:47.766Z,12.562
2024-05-09T01:14:47.852Z,12.562
2024-05-09T01:16:48.043Z,12.5
2024-05-09T01:18:48.661Z,12.5
2024-05-09T01:20:48.447Z,12.375
2024-05-09T01:22:48.086Z,12.438
2024-05-09T01:24:48.041Z,12.438
2024-05-09T01:26:47.891Z,12.375
2024-05-09T01:28:48.215Z,12.375
2024-05-09T01:30:47.675Z,12.375
2024-05-09T01:32:48.714Z,12.375
2024-05-09T01:34:48.265Z,12.313
2024-05-09T01:36:48.085Z,12.313
2024-05-09T01:38:47.825Z,12.25
2024-05-09T01:40:48.330Z,12.25
2024-05-09T01:42:47.965Z,12.188
2024-05-09T01:44:47.991Z,12.25
2024-05-09T01:46:48.134Z,12.188
2024-05-09T01:48:48.364Z,12.188
2024-05-09T01:50:48.219Z,12.125
2024-05-09T01:52:48.163Z,12.125
2024-05-09T01:54:48.037Z,12.063
2024-05-09T01:56:47.841Z,12.063
2024-05-09T01:58:48.243Z,12
2024-05-09T02:00:48.399Z,12.063
2024-05-09T02:04:48.478Z,12
2024-05-09T02:06:48.036Z,12
2024-05-09T02:08:48.151Z,11.937
2024-05-09T02:10:49.950Z,11.937
2024-05-09T02:12:47.926Z,11.937
2024-05-09T02:14:48.106Z,11.937
2024-05-09T02:16:48.234Z,11.875
2024-05-09T02:18:48.370Z,11.875
2024-05-09T02:20:48.195Z,11.875
2024-05-09T02:22:48.395Z,11.813
2024-05-09T02:24:48.274Z,11.813
2024-05-09T02:26:47.940Z,11.75
2024-05-09T02:28:49.005Z,11.75
2024-05-09T02:30:47.948Z,11.75
2024-05-09T02:32:48.961Z,11.75
2024-05-09T02:36:47.929Z,11.688
2024-05-09T02:38:49.196Z,11.688
2024-05-09T02:40:48.139Z,11.625
2024-05-09T02:42:47.935Z,11.625
2024-05-09T02:44:47.921Z,11.563
2024-05-09T02:46:48.335Z,11.625
2024-05-09T02:48:49.031Z,11.563
2024-05-09T02:50:48.164Z,11.563
2024-05-09T02:52:48.089Z,11.5
2024-05-09T02:54:48.048Z,11.5
2024-05-09T02:56:48.220Z,11.5
2024-05-09T02:58:48.015Z,11.5
2024-05-09T03:00:48.225Z,11.5
2024-05-09T03:02:48.304Z,11.438
2024-05-09T03:04:48.527Z,11.438
2024-05-09T03:06:47.978Z,11.438
2024-05-09T03:08:48.478Z,11.375
2024-05-09T03:10:48.345Z,11.375
2024-05-09T03:12:47.980Z,11.312
2024-05-09T03:14:48.071Z,11.312
2024-05-09T03:16:48.516Z,11.312
2024-05-09T03:18:48.200Z,11.188
2024-05-09T03:20:48.375Z,11.188
2024-05-09T03:22:48.002Z,11.25
2024-05-09T03:24:47.819Z,11.25
2024-05-09T03:26:47.827Z,11.188
2024-05-09T03:28:47.858Z,11.188
2024-05-09T03:30:47.803Z,11.125
2024-05-09T03:32:48.719Z,11.125
2024-05-09T03:34:47.946Z,11.125
2024-05-09T03:36:47.787Z,11.063
2024-05-09T03:38:47.788Z,11.063
2024-05-09T03:40:50.335Z,11
2024-05-09T03:42:48.013Z,11.063
2024-05-09T03:44:47.899Z,11
2024-05-09T03:46:48.425Z,11.063
2024-05-09T03:48:48.388Z,11
2024-05-09T03:50:48.499Z,11
2024-05-09T03:52:48.100Z,11
2024-05-09T03:54:48.015Z,11
2024-05-09T03:56:47.886Z,10.938
2024-05-09T03:58:48.066Z,11
2024-05-09T04:00:48.465Z,10.875
2024-05-09T04:02:48.650Z,10.938
2024-05-09T04:04:48.518Z,10.938
2024-05-09T04:06:48.068Z,10.875
2024-05-09T04:08:48.360Z,10.938
2024-05-09T04:10:48.334Z,10.875
2024-05-09T04:12:48.091Z,10.875
2024-05-09T04:14:48.302Z,10.875
2024-05-09T04:16:48.304Z,10.875
2024-05-09T04:18:49.265Z,10.875
2024-05-09T04:20:48.423Z,10.875
2024-05-09T04:22:48.524Z,10.875
2024-05-09T04:24:48.094Z,10.813
2024-05-09T04:26:47.983Z,10.875
2024-05-09T04:28:48.217Z,10.813
2024-05-09T04:30:48.286Z,10.813
2024-05-09T04:32:48.464Z,10.813
2024-05-09T04:34:48.257Z,10.875
2024-05-09T04:36:48.062Z,10.813
2024-05-09T04:38:48.210Z,10.813
2024-05-09T04:40:48.185Z,10.875
2024-05-09T04:42:47.874Z,10.875
2024-05-09T04:46:48.266Z,10.875
2024-05-09T04:48:48.253Z,10.875
2024-05-09T04:50:48.185Z,10.875
2024-05-09T04:52:48.183Z,10.813
2024-05-09T04:54:47.833Z,10.875
2024-05-09T04:56:48.119Z,10.875
2024-05-09T04:58:48.396Z,10.938
2024-05-09T05:00:48.613Z,10.875
2024-05-09T05:02:48.562Z,10.875
2024-05-09T05:04:48.503Z,10.875
2024-05-09T05:06:48.018Z,10.875
2024-05-09T05:08:48.000Z,10.875
2024-05-09T05:10:50.261Z,10.875
2024-05-09T05:12:48.140Z,10.875
2024-05-09T05:14:48.075Z,10.813
2024-05-09T05:16:48.327Z,10.813
2024-05-09T05:18:48.635Z,10.813
2024-05-09T05:20:48.699Z,10.875
2024-05-09T05:22:48.226Z,10.875
2024-05-09T05:24:48.293Z,10.813
2024-05-09T05:26:48.317Z,10.813
2024-05-09T05:28:48.207Z,10.813
2024-05-09T05:30:48.409Z,10.875
2024-05-09T05:32:48.894Z,10.813
2024-05-09T05:34:48.447Z,10.813
2024-05-09T05:36:48.245Z,10.875
2024-05-09T05:38:48.411Z,10.875
2024-05-09T05:40:48.537Z,10.875
2024-05-09T05:42:48.119Z,10.875
2024-05-09T05:44:48.085Z,10.875
2024-05-09T05:46:48.367Z,10.938
2024-05-09T05:48:48.723Z,10.875
2024-05-09T05:50:48.556Z,11
2024-05-09T05:52:48.264Z,11
2024-05-09T05:54:48.072Z,11
2024-05-09T05:56:48.245Z,11.063
2024-05-09T05:58:48.356Z,11.125
2024-05-09T06:00:48.933Z,11.063
2024-05-09T06:02:48.794Z,11.125
2024-05-09T06:04:48.684Z,11.125
2024-05-09T06:06:48.399Z,11.188
2024-05-09T06:08:48.717Z,11.188
2024-05-09T06:10:48.517Z,11.188
2024-05-09T06:12:48.132Z,11.188
2024-05-09T06:14:48.100Z,11.188
2024-05-09T06:16:48.334Z,11.25
2024-05-09T06:18:48.664Z,11.25
2024-05-09T06:20:48.540Z,11.25
2024-05-09T06:22:48.241Z,11.25
2024-05-09T06:24:48.237Z,11.312
2024-05-09T06:26:48.267Z,11.312
2024-05-09T06:28:48.617Z,11.312
2024-05-09T06:30:48.135Z,11.312
2024-05-09T06:32:48.858Z,11.375
2024-05-09T06:34:48.991Z,11.375
2024-05-09T06:36:48.356Z,11.438
2024-05-09T06:38:48.402Z,11.375
2024-05-09T06:42:48.081Z,11.438
2024-05-09T06:44:48.177Z,11.438
2024-05-09T06:46:48.695Z,11.5
2024-05-09T06:48:49.848Z,11.5
2024-05-09T06:50:49.118Z,11.5
2024-05-09T06:52:48.249Z,11.5
2024-05-09T06:54:48.053Z,11.5
2024-05-09T06:56:47.931Z,11.5
2024-05-09T06:58:48.503Z,11.5
2024-05-09T07:00:48.508Z,11.5
2024-05-09T07:02:48.866Z,11.563
2024-05-09T07:04:48.423Z,11.563
2024-05-09T07:06:48.140Z,11.563
2024-05-09T07:08:52.831Z,11.5
2024-05-09T07:10:49.015Z,11.563
2024-05-09T07:12:48.172Z,11.563
2024-05-09T07:14:48.686Z,11.5
2024-05-09T07:16:48.671Z,11.563
2024-05-09T07:18:48.979Z,11.563
2024-05-09T07:20:51.084Z,11.625
2024-05-09T07:22:48.901Z,11.625
2024-05-09T07:24:48.118Z,11.625
2024-05-09T07:26:48.712Z,11.688
2024-05-09T07:28:48.464Z,11.688
2024-05-09T07:30:48.751Z,11.688
2024-05-09T07:32:49.961Z,11.75
2024-05-09T07:34:48.370Z,11.75
2024-05-09T07:36:48.151Z,11.813
2024-05-09T07:38:48.487Z,11.813
2024-05-09T07:40:48.689Z,11.875
2024-05-09T07:42:48.253Z,11.937
2024-05-09T07:44:48.122Z,12
2024-05-09T07:51:48.375Z,12
2024-05-09T07:56:44.071Z,12.188
2024-05-09T07:58:43.554Z,12.25
2024-05-09T08:00:43.557Z,12.188
2024-05-09T08:02:43.517Z,21.937
2024-05-09T08:04:43.849Z,24.188
2024-05-09T08:06:43.439Z,23.625
2024-05-09T08:10:43.949Z,21.437
2024-05-09T08:12:43.513Z,19.75
2024-05-09T08:14:43.570Z,20
2024-05-09T08:16:43.554Z,20.5
2024-05-09T08:18:43.596Z,20.75
2024-05-09T08:20:43.474Z,20.812
2024-05-09T08:22:43.431Z,21
2024-05-09T08:24:43.671Z,21.063
2024-05-09T08:26:43.512Z,21.187
2024-05-09T08:30:44.313Z,21.25
2024-05-09T08:32:43.658Z,21.312
2024-05-09T08:34:43.607Z,21.375
2024-05-09T08:36:43.510Z,21.437
2024-05-09T08:38:43.721Z,21.437
2024-05-09T08:40:44.104Z,21.5
2024-05-09T08:42:43.665Z,21.562
2024-05-09T08:44:43.542Z,21.625
2024-05-09T08:48:43.728Z,21.688
2024-05-09T08:50:44.940Z,21.688
2024-05-09T08:52:43.447Z,21.812
2024-05-09T08:54:43.981Z,21.812
2024-05-09T08:58:43.594Z,21.875
2024-05-09T09:00:43.691Z,21.937
2024-05-09T09:02:44.640Z,22
2024-05-09T09:06:43.972Z,22
2024-05-09T09:10:43.964Z,22.062
2024-05-09T09:12:43.642Z,22.125
2024-05-09T09:14:43.635Z,22.25
2024-05-09T09:16:43.731Z,22.25
2024-05-09T09:18:44.421Z,22.313
2024-05-09T09:20:43.777Z,22.375
2024-05-09T09:24:43.756Z,22.437
2024-05-09T09:26:43.475Z,22.437
2024-05-09T09:28:43.446Z,22.437
2024-05-09T09:30:44.013Z,22.437
2024-05-09T09:32:43.978Z,22.5
2024-05-09T09:36:43.737Z,22.5
2024-05-09T09:40:50.677Z,22.687
2024-05-09T09:42:43.769Z,22.687
2024-05-09T09:45:03.851Z,22.75
2024-05-09T09:46:43.868Z,22.75
2024-05-09T09:50:43.667Z,22.812
2024-05-09T09:54:43.763Z,22.812
2024-05-09T09:56:43.822Z,22.875
2024-05-09T09:58:43.813Z,22.875
2024-05-09T10:00:45.174Z,22.875
2024-05-09T10:02:43.805Z,23
2024-05-09T10:04:44.604Z,23
2024-05-09T10:10:44.374Z,23.062
2024-05-09T10:16:43.551Z,23.062
2024-05-09T10:18:44.134Z,23.125
2024-05-09T10:20:43.731Z,23.125
2024-05-09T10:24:43.929Z,23.062
2024-05-09T10:26:43.618Z,23.125
2024-05-09T10:30:45.686Z,23.062
2024-05-09T10:36:43.752Z,23.125
2024-05-09T10:38:43.734Z,23.187
2024-05-09T10:40:43.967Z,23.25
2024-05-09T10:42:44.615Z,23.25
2024-05-09T10:44:43.481Z,23.375
2024-05-09T10:46:44.097Z,23.437
2024-05-09T10:48:44.953Z,23.563
2024-05-09T10:50:43.702Z,23.5
2024-05-09T10:54:44.365Z,23.625
2024-05-09T10:58:43.851Z,23.563
2024-05-09T11:00:44.282Z,23.563
2024-05-09T11:04:43.999Z,23.5
2024-05-09T11:06:44.661Z,23.563
2024-05-09T11:08:43.562Z,23.625
2024-05-09T11:10:44.128Z,23.563
2024-05-09T11:14:43.846Z,23.625
2024-05-09T11:16:43.688Z,23.625
2024-05-09T11:18:45.047Z,23.687
2024-05-09T11:20:44.248Z,23.625
2024-05-09T11:24:44.086Z,23.687
2024-05-09T11:26:44.023Z,23.625
2024-05-09T11:30:44.119Z,23.687
2024-05-09T11:36:44.183Z,23.75
2024-05-09T11:38:44.064Z,23.75
2024-05-09T11:40:44.392Z,23.75
2024-05-09T11:42:44.214Z,23.75
2024-05-09T11:44:43.908Z,23.75
2024-05-09T11:46:44.229Z,23.75
2024-05-09T11:48:44.230Z,23.812
2024-05-09T11:50:43.912Z,23.75
2024-05-09T11:54:43.807Z,23.812
2024-05-09T11:56:44.561Z,23.875
2024-05-09T12:00:44.385Z,23.75
2024-05-09T12:04:44.573Z,23.812
2024-05-09T12:08:43.815Z,23.75
2024-05-09T12:10:44.557Z,23.812
2024-05-09T12:14:44.076Z,23.812
2024-05-09T12:16:44.305Z,23.75
2024-05-09T12:22:43.805Z,23.75
2024-05-09T12:24:44.745Z,23.812
2024-05-09T12:26:43.735Z,23.812
2024-05-09T12:32:43.945Z,23.812
2024-05-09T12:34:45.479Z,23.875
2024-05-09T12:38:43.796Z,23.812
2024-05-09T12:40:44.350Z,23.812
2024-05-09T12:42:44.123Z,23.75
2024-05-09T12:44:43.751Z,23.75
2024-05-09T12:46:44.452Z,23.75
2024-05-09T12:48:45.012Z,23.75
2024-05-09T12:50:43.662Z,23.687
2024-05-09T12:54:43.722Z,23.687
2024-05-09T12:58:43.595Z,23.75
2024-05-09T13:00:44.352Z,23.687
2024-05-09T13:02:44.092Z,23.75
2024-05-09T13:04:43.932Z,23.75
2024-05-09T13:08:43.863Z,23.687
2024-05-09T13:10:44.159Z,23.687
2024-05-09T13:12:43.820Z,23.687
2024-05-09T13:14:43.666Z,23.687
2024-05-09T13:16:44.058Z,23.687
2024-05-09T13:18:44.752Z,23.687
2024-05-09T13:20:43.608Z,23.563
2024-05-09T13:24:43.882Z,23.5
2024-05-09T13:26:43.839Z,23.563
2024-05-09T13:32:44.462Z,23.563
2024-05-09T13:34:44.308Z,23.563
2024-05-09T13:38:43.739Z,23.25
2024-05-09T13:40:44.440Z,23.187
2024-05-09T13:42:48.336Z,23.125
2024-05-09T13:44:43.927Z,23.187
2024-05-09T13:46:44.975Z,23.187
2024-05-09T13:50:44.068Z,23.312
2024-05-09T13:52:43.809Z,23.312
2024-05-09T13:54:43.813Z,23.375
2024-05-09T13:56:43.711Z,23.312
2024-05-09T14:00:49.928Z,23.25
2024-05-09T14:02:44.389Z,23.312
2024-05-09T14:04:43.830Z,23.312
2024-05-09T14:10:45.690Z,23.187
2024-05-09T14:12:44.132Z,23.187
2024-05-09T14:14:43.863Z,23.187
2024-05-09T14:16:44.866Z,23.125
2024-05-09T14:18:44.089Z,23.187
2024-05-09T14:20:44.158Z,23.125
2024-05-09T14:22:44.009Z,23.125
2024-05-09T14:24:43.905Z,23.062
2024-05-09T14:28:43.979Z,23
2024-05-09T14:30:44.043Z,23
2024-05-09T14:32:44.533Z,23
2024-05-09T14:34:44.254Z,22.875
2024-05-09T14:36:44.266Z,22.875
2024-05-09T14:38:44.379Z,22.875
2024-05-09T14:40:44.867Z,22.812
2024-05-09T14:42:43.861Z,22.75
2024-05-09T14:44:43.947Z,22.75
2024-05-09T14:54:44.990Z,22.812
2024-05-09T14:58:44.682Z,22.625
2024-05-09T15:00:50.848Z,22.625
2024-05-09T15:02:43.962Z,22.562
2024-05-09T15:04:44.022Z,22.562
2024-05-09T15:06:44.262Z,22.562
2024-05-09T15:10:44.499Z,22.5
2024-05-09T15:12:44.277Z,22.437
2024-05-09T15:14:43.989Z,22.437
2024-05-09T15:18:45.168Z,22.375
2024-05-09T15:20:45.901Z,22.375
2024-05-09T15:24:43.984Z,22.25
2024-05-09T15:26:43.998Z,22.187
2024-05-09T15:28:44.015Z,22.125
2024-05-09T15:30:47.131Z,22.125
2024-05-09T15:32:44.414Z,22.062
2024-05-09T15:34:44.212Z,22
2024-05-09T15:36:44.191Z,21.937
2024-05-09T15:38:43.881Z,22
2024-05-09T15:40:44.212Z,22
2024-05-09T15:42:44.188Z,22
2024-05-09T15:44:44.611Z,21.937
2024-05-09T15:46:44.007Z,21.875
2024-05-09T15:48:45.800Z,21.937
2024-05-09T15:50:45.531Z,21.875
2024-05-09T15:52:44.016Z,21.812
2024-05-09T15:54:44.350Z,21.812
2024-05-09T15:56:43.969Z,21.812
2024-05-09T15:58:44.016Z,21.688
2024-05-09T16:00:48.021Z,21.75
2024-05-09T16:02:44.850Z,21.688
2024-05-09T16:08:43.958Z,21.625
2024-05-09T16:10:47.429Z,21.625
2024-05-09T16:12:44.361Z,21.562
2024-05-09T16:14:44.147Z,21.5
2024-05-09T16:18:44.254Z,21.5
2024-05-09T16:20:50.580Z,21.437
2024-05-09T16:22:44.289Z,21.437
2024-05-09T16:24:44.222Z,21.437
2024-05-09T16:26:44.448Z,21.437
2024-05-09T16:28:43.847Z,21.437
2024-05-09T16:30:44.260Z,21.437
2024-05-09T16:32:44.156Z,21.437
2024-05-09T16:34:44.277Z,21.437
2024-05-09T16:36:44.195Z,21.437
2024-05-09T16:38:44.141Z,21.375
2024-05-09T16:40:44.236Z,21.375
2024-05-09T16:42:44.153Z,21.312
2024-05-09T16:44:44.147Z,21.312
2024-05-09T16:48:43.934Z,21.312
2024-05-09T16:50:44.300Z,21.312
2024-05-09T16:52:44.169Z,21.25
2024-05-09T16:54:44.760Z,21.25
2024-05-09T16:56:44.917Z,21.312
2024-05-09T17:00:45.262Z,21.312
2024-05-09T17:02:44.232Z,21.25
2024-05-09T17:04:45.054Z,21.25
2024-05-09T17:06:45.280Z,21.187
2024-05-09T17:10:44.104Z,21.25
2024-05-09T17:16:44.572Z,21.187
2024-05-09T17:18:44.510Z,21.187
2024-05-09T17:20:44.252Z,21.187
2024-05-09T17:24:43.970Z,21.187
2024-05-09T17:26:44.036Z,21.187
2024-05-09T17:28:44.357Z,21.125
2024-05-09T17:30:44.356Z,21.187
2024-05-09T17:32:44.204Z,21.125
2024-05-09T17:36:44.632Z,21.187
2024-05-09T17:38:44.135Z,21.187
2024-05-09T17:40:44.356Z,21.125
2024-05-09T17:42:44.608Z,21.063
2024-05-09T17:44:44.330Z,21.063
2024-05-09T17:48:44.355Z,21.125
2024-05-09T17:50:44.432Z,21
2024-05-09T17:54:44.125Z,21.125
2024-05-09T17:56:44.086Z,21.063
2024-05-09T17:58:44.219Z,21.063
2024-05-09T18:00:44.522Z,21.063
2024-05-09T18:02:44.688Z,21
2024-05-09T18:10:45.225Z,20.562
2024-05-09T18:12:44.307Z,20.5
2024-05-09T18:16:44.158Z,20.312
2024-05-09T18:18:45.144Z,20.25
2024-05-09T18:20:46.856Z,20.125
2024-05-09T18:22:44.536Z,20.062
2024-05-09T18:24:44.398Z,19.937
2024-05-09T18:26:44.328Z,19.875
2024-05-09T18:30:44.297Z,19.687
2024-05-09T18:32:44.670Z,19.625
2024-05-09T18:38:44.201Z,19.437
2024-05-09T18:40:49.346Z,19.312
2024-05-09T18:42:44.568Z,19.187
2024-05-09T18:46:44.089Z,19.062
2024-05-09T18:48:44.645Z,19
2024-05-09T18:58:44.365Z,18.562
2024-05-09T19:00:53.321Z,18.5
2024-05-09T19:02:45.314Z,18.437
2024-05-09T19:04:44.685Z,18.437
2024-05-09T19:08:44.091Z,18.25
2024-05-09T19:10:44.486Z,18.125
2024-05-09T19:12:44.518Z,18.062
2024-05-09T19:14:44.306Z,18
2024-05-09T19:18:44.695Z,17.875
2024-05-09T19:20:44.490Z,17.812
2024-05-09T19:22:44.267Z,17.75
2024-05-09T19:26:44.507Z,17.625
2024-05-09T19:30:44.539Z,17.5
2024-05-09T19:32:44.560Z,17.437
2024-05-09T19:38:44.407Z,17.312
2024-05-09T19:40:44.364Z,17.312
2024-05-09T19:42:44.588Z,17.25
2024-05-09T19:48:44.697Z,17.062
2024-05-09T19:50:47.557Z,17.062
2024-05-09T19:52:44.329Z,16.937
2024-05-09T19:54:44.483Z,16.937
2024-05-09T19:56:44.850Z,16.937
2024-05-09T19:58:44.546Z,16.937
2024-05-09T20:00:45.216Z,16.875
2024-05-09T20:04:45.057Z,16.875
2024-05-09T20:10:44.779Z,16.625
2024-05-09T20:12:44.271Z,16.75
2024-05-09T20:14:44.456Z,16.687
2024-05-09T20:18:44.901Z,16.687
2024-05-09T20:20:46.145Z,16.625
2024-05-09T20:22:44.126Z,16.562
2024-05-09T20:24:44.487Z,16.5
2024-05-09T20:26:44.286Z,16.5
2024-05-09T20:30:44.719Z,16.437
2024-05-09T20:32:45.282Z,16.437
2024-05-09T20:36:44.716Z,16.375
2024-05-09T20:38:44.157Z,16.25
2024-05-09T20:40:44.516Z,16.312
2024-05-09T20:42:44.511Z,16.187
2024-05-09T20:44:44.293Z,16.125
2024-05-09T20:46:44.585Z,16.125
2024-05-09T20:50:44.658Z,16.125
2024-05-09T20:52:44.366Z,16.062
2024-05-09T20:54:44.607Z,16
2024-05-09T20:58:44.524Z,15.875
2024-05-09T21:00:47.109Z,15.813
2024-05-09T21:04:45.036Z,15.625
2024-05-09T21:08:44.320Z,15.563
2024-05-09T21:10:44.680Z,15.313
2024-05-09T21:12:44.514Z,15.313
2024-05-09T21:16:44.688Z,15.188
2024-05-09T21:22:44.213Z,15.062
2024-05-09T21:24:44.591Z,15.062
2024-05-09T21:26:44.464Z,14.938
2024-05-09T21:30:44.679Z,14.813
2024-05-09T21:32:44.498Z,14.75
2024-05-09T21:38:44.385Z,14.813
2024-05-09T21:40:45.390Z,14.938
2024-05-09T21:42:44.521Z,15.062
2024-05-09T21:44:44.429Z,15.188
2024-05-09T21:46:44.721Z,15.313
2024-05-09T21:48:44.671Z,15.438
2024-05-09T21:54:44.881Z,15.813
2024-05-09T21:58:44.566Z,15.938
2024-05-09T22:00:44.574Z,15.938
2024-05-09T22:02:44.666Z,16
2024-05-09T22:04:45.474Z,16
2024-05-09T22:08:44.492Z,16.062
2024-05-09T22:10:44.681Z,16.062
2024-05-09T22:12:44.456Z,16
2024-05-09T22:14:44.377Z,16.062
2024-05-09T22:16:44.620Z,16.062
2024-05-09T22:18:44.670Z,16
2024-05-09T22:20:45.663Z,16.062
2024-05-09T22:22:44.420Z,16
2024-05-09T22:24:44.760Z,15.938
2024-05-09T22:30:44.461Z,15.875
2024-05-09T22:32:44.692Z,15.813
2024-05-09T22:36:44.400Z,15.75
2024-05-09T22:38:44.470Z,15.75
2024-05-09T22:40:50.028Z,15.687
2024-05-09T22:42:44.603Z,15.687
2024-05-09T22:44:44.238Z,15.687
2024-05-09T22:48:44.554Z,15.563
2024-05-09T22:50:44.326Z,15.5
2024-05-09T22:54:44.665Z,15.5
2024-05-09T23:00:44.828Z,15.438
2024-05-09T23:02:44.802Z,15.375
2024-05-09T23:04:44.924Z,15.375
2024-05-09T23:06:44.728Z,15.375
2024-05-09T23:08:44.446Z,15.313
2024-05-09T23:10:44.803Z,15.313
2024-05-09T23:14:44.625Z,15.25
2024-05-09T23:16:45.019Z,15.25
2024-05-09T23:22:44.524Z,15.188
2024-05-09T23:24:44.436Z,15.188
2024-05-09T23:26:44.957Z,15.125
2024-05-09T23:28:44.472Z,15.125
2024-05-09T23:30:45.016Z,15.125
2024-05-09T23:32:44.856Z,15.188
2024-05-09T23:34:44.794Z,15.062
2024-05-09T23:38:44.637Z,15.062
2024-05-09T23:42:44.904Z,15
2024-05-09T23:44:44.400Z,15
2024-05-09T23:46:44.908Z,14.938
2024-05-09T23:50:44.465Z,15
2024-05-09T23:54:44.479Z,14.938
2024-05-09T23:56:44.411Z,14.875
2024-05-09T23:58:44.431Z,14.875
